createdAt,value
2022-10-18T00:00:30.273Z,8.71
2022-10-18T00:05:33.777Z,8.66
2022-10-18T00:10:36.757Z,8.60
2022-10-18T00:15:39.674Z,8.55
2022-10-18T00:20:44.644Z,8.52
2022-10-18T00:25:47.965Z,8.47
2022-10-18T00:36:00.706Z,8.38
2022-10-18T00:41:04.418Z,8.36
2022-10-18T00:46:07.237Z,8.34
2022-10-18T00:51:10.207Z,8.32
2022-10-18T00:56:13.540Z,8.33
2022-10-18T01:01:16.701Z,8.32
2022-10-18T01:06:19.648Z,8.29
2022-10-18T01:11:33.511Z,8.30
2022-10-18T01:17:01.278Z,8.26
2022-10-18T01:22:04.100Z,8.23
2022-10-18T01:27:35.697Z,8.17
2022-10-18T01:32:46.163Z,8.11
2022-10-18T01:37:50.839Z,8.05
2022-10-18T01:42:53.660Z,8.02
2022-10-18T01:47:56.663Z,8.00
2022-10-18T01:52:59.701Z,7.97
2022-10-18T01:58:11.462Z,7.95
2022-10-18T02:03:26.285Z,7.92
2022-10-18T02:08:46.607Z,7.88
2022-10-18T02:13:54.192Z,7.85
2022-10-18T02:19:41.696Z,7.81
2022-10-18T02:24:48.439Z,7.76
2022-10-18T02:29:52.645Z,7.71
2022-10-18T02:35:04.072Z,7.68
2022-10-18T02:40:08.817Z,7.62
2022-10-18T02:45:12.450Z,7.59
2022-10-18T02:50:15.191Z,7.55
2022-10-18T02:55:18.189Z,7.51
2022-10-18T03:00:21.069Z,7.53
2022-10-18T03:05:23.769Z,7.54
2022-10-18T03:10:26.572Z,7.55
2022-10-18T03:15:29.376Z,7.55
2022-10-18T03:20:33.194Z,7.50
2022-10-18T03:25:35.887Z,7.53
2022-10-18T03:30:41.559Z,7.51
2022-10-18T03:35:44.652Z,7.48
2022-10-18T03:40:47.416Z,7.42
2022-10-18T03:45:50.525Z,7.36
2022-10-18T03:50:53.428Z,7.34
2022-10-18T03:55:56.794Z,7.32
2022-10-18T04:00:59.593Z,7.31
2022-10-18T04:06:03.633Z,7.28
2022-10-18T04:11:08.677Z,7.23
2022-10-18T04:16:11.427Z,7.24
2022-10-18T04:21:14.632Z,7.20
2022-10-18T04:26:17.508Z,7.22
2022-10-18T04:31:21.605Z,7.18
2022-10-18T04:36:24.416Z,7.18
2022-10-18T04:41:27.233Z,7.17
2022-10-18T04:46:30.091Z,7.15
2022-10-18T04:51:32.851Z,7.12
2022-10-18T04:56:35.534Z,7.07
2022-10-18T05:01:38.152Z,7.03
2022-10-18T05:06:41.570Z,7.01
2022-10-18T05:11:44.505Z,6.96
2022-10-18T05:16:47.053Z,6.91
2022-10-18T05:21:49.947Z,6.90
2022-10-18T05:26:52.797Z,6.90
2022-10-18T05:31:55.580Z,6.92
2022-10-18T05:36:58.495Z,6.93
2022-10-18T05:42:02.494Z,6.95
2022-10-18T05:47:05.386Z,7.00
2022-10-18T05:52:08.215Z,7.05
2022-10-18T05:57:10.865Z,7.14
2022-10-18T06:02:13.836Z,7.25
2022-10-18T06:07:16.750Z,7.41
2022-10-18T06:12:19.580Z,7.55
2022-10-18T06:17:22.396Z,7.73
2022-10-18T06:22:25.194Z,7.98
2022-10-18T06:27:28.145Z,8.20
2022-10-18T06:32:31.447Z,8.48
2022-10-18T06:37:35.678Z,8.74
2022-10-18T06:42:38.726Z,9.00
2022-10-18T06:47:41.602Z,9.28
2022-10-18T06:52:44.870Z,9.54
2022-10-18T06:57:47.853Z,9.83
2022-10-18T07:02:50.644Z,10.11
2022-10-18T07:07:56.347Z,10.42
2022-10-18T07:13:19.984Z,10.72
2022-10-18T07:18:22.861Z,11.40
2022-10-18T07:23:25.732Z,12.96
2022-10-18T07:28:29.301Z,14.40
2022-10-18T07:33:32.068Z,15.57
2022-10-18T07:38:35.491Z,16.16
2022-10-18T07:43:41.926Z,16.04
2022-10-18T07:48:44.594Z,15.67
2022-10-18T07:53:47.648Z,15.58
2022-10-18T07:58:52.206Z,15.31
2022-10-18T08:03:55.087Z,14.99
2022-10-18T08:08:57.651Z,14.79
2022-10-18T08:14:00.481Z,14.72
2022-10-18T08:19:03.449Z,14.71
2022-10-18T08:24:06.448Z,14.79
2022-10-18T08:29:21.873Z,15.23
2022-10-18T08:34:27.254Z,15.46
2022-10-18T08:39:30.263Z,15.68
2022-10-18T08:44:33.781Z,15.86
2022-10-18T08:49:47.306Z,16.03
2022-10-18T08:55:10.374Z,16.18
2022-10-18T09:00:24.746Z,16.19
2022-10-18T09:05:49.571Z,16.22
2022-10-18T09:11:08.141Z,16.23
2022-10-18T09:16:20.681Z,16.30
2022-10-18T09:21:51.430Z,16.39
2022-10-18T09:27:01.299Z,16.50
2022-10-18T09:32:27.511Z,16.54
2022-10-18T09:37:32.551Z,16.63
2022-10-18T09:42:39.696Z,16.76
2022-10-18T09:47:51.239Z,16.96
2022-10-18T09:53:18.414Z,17.18
2022-10-18T09:58:24.367Z,17.36
2022-10-18T10:03:27.243Z,17.51
2022-10-18T10:08:34.500Z,17.73
2022-10-18T10:13:37.277Z,18.02
2022-10-18T10:18:40.221Z,18.58
2022-10-18T10:23:52.933Z,18.98
2022-10-18T10:28:56.143Z,19.30
2022-10-18T10:34:14.305Z,19.44
2022-10-18T10:39:19.517Z,19.63
2022-10-18T10:44:28.701Z,19.97
2022-10-18T10:49:46.050Z,20.41
2022-10-18T10:54:51.537Z,21.18
2022-10-18T10:59:57.518Z,21.93
2022-10-18T11:05:27.016Z,22.93
2022-10-18T11:10:34.558Z,23.78
2022-10-18T11:15:49.512Z,24.60
2022-10-18T11:21:08.760Z,25.10
2022-10-18T11:26:20.972Z,25.46
2022-10-18T11:31:46.182Z,25.86
2022-10-18T11:36:57.914Z,25.89
2022-10-18T11:42:28.467Z,25.76
2022-10-18T11:47:52.316Z,25.45
2022-10-18T11:53:42.678Z,24.60
2022-10-18T11:59:11.084Z,23.36
2022-10-18T12:04:23.827Z,22.32
2022-10-18T12:09:31.755Z,21.58
2022-10-18T12:14:46.155Z,21.04
2022-10-18T12:19:49.908Z,20.63
2022-10-18T12:24:52.622Z,20.36
2022-10-18T12:30:02.798Z,20.15
2022-10-18T12:35:18.315Z,19.92
2022-10-18T12:40:30.129Z,19.76
2022-10-18T12:45:35.386Z,19.67
2022-10-18T12:50:43.816Z,19.56
2022-10-18T12:55:52.185Z,19.49
2022-10-18T13:00:57.607Z,19.41
2022-10-18T13:06:04.263Z,19.39
2022-10-18T13:11:09.466Z,19.35
2022-10-18T13:16:33.791Z,19.30
2022-10-18T13:21:48.685Z,19.27
2022-10-18T13:32:48.405Z,19.14
2022-10-18T13:37:59.524Z,19.16
2022-10-18T13:43:50.175Z,19.14
2022-10-18T13:49:00.138Z,19.10
2022-10-18T13:54:12.105Z,19.06
2022-10-18T13:59:15.255Z,18.98
2022-10-18T14:04:42.715Z,18.87
2022-10-18T14:09:54.914Z,18.89
2022-10-18T14:15:04.391Z,18.87
2022-10-18T14:20:24.766Z,18.85
2022-10-18T14:25:38.241Z,18.82
2022-10-18T14:31:07.276Z,18.82
2022-10-18T14:36:16.529Z,18.77
2022-10-18T14:41:31.257Z,18.69
2022-10-18T14:46:34.576Z,18.59
2022-10-18T14:51:39.284Z,18.44
2022-10-18T14:56:42.864Z,18.31
2022-10-18T15:01:52.584Z,18.04
2022-10-18T15:06:55.566Z,17.83
2022-10-18T15:12:00.758Z,17.62
2022-10-18T15:17:08.604Z,17.41
2022-10-18T15:22:30.879Z,17.15
2022-10-18T15:27:37.264Z,16.89
2022-10-18T15:32:51.111Z,16.65
2022-10-18T15:37:55.870Z,16.39
2022-10-18T15:43:02.284Z,16.03
2022-10-18T15:48:10.915Z,15.77
2022-10-18T15:53:23.130Z,15.59
2022-10-18T15:58:51.467Z,15.36
2022-10-18T16:09:02.219Z,15.02
2022-10-18T16:14:05.057Z,14.88
2022-10-18T16:19:08.154Z,14.70
2022-10-18T16:24:11.592Z,14.52
2022-10-18T16:29:16.188Z,14.41
2022-10-18T16:34:19.538Z,14.31
2022-10-18T16:39:22.980Z,14.18
2022-10-18T16:44:26.317Z,13.97
2022-10-18T16:49:29.186Z,13.76
2022-10-18T16:54:32.013Z,13.59
2022-10-18T16:59:34.807Z,13.42
2022-10-18T17:04:37.588Z,13.22
2022-10-18T17:09:40.388Z,13.06
2022-10-18T17:14:43.201Z,12.97
2022-10-18T17:19:47.035Z,12.91
2022-10-18T17:24:50.135Z,12.84
2022-10-18T17:29:53.010Z,12.79
2022-10-18T17:34:55.902Z,12.72
2022-10-18T17:39:58.827Z,12.63
2022-10-18T17:45:01.746Z,12.51
2022-10-18T17:50:04.836Z,12.36
2022-10-18T17:55:07.977Z,12.27
2022-10-18T18:00:12.904Z,12.28
2022-10-18T18:05:15.732Z,12.29
2022-10-18T18:10:18.511Z,12.24
2022-10-18T18:15:21.533Z,12.12
2022-10-18T18:20:24.906Z,12.03
2022-10-18T18:25:27.691Z,11.93
2022-10-18T18:30:30.705Z,11.86
2022-10-18T18:35:33.508Z,11.78
2022-10-18T18:40:36.411Z,11.70
2022-10-18T18:45:39.707Z,11.58
2022-10-18T18:50:49.910Z,11.49
2022-10-18T18:55:52.886Z,11.41
2022-10-18T19:00:56.400Z,11.32
2022-10-18T19:06:06.905Z,11.19
2022-10-18T19:11:13.401Z,11.09
2022-10-18T19:16:28.347Z,10.99
2022-10-18T19:21:33.220Z,10.90
2022-10-18T19:26:45.303Z,10.77
2022-10-18T19:31:49.447Z,10.66
2022-10-18T19:36:52.544Z,10.53
2022-10-18T19:41:58.086Z,10.43
2022-10-18T19:47:00.935Z,10.32
2022-10-18T19:52:03.753Z,10.29
2022-10-18T19:57:06.953Z,10.25
2022-10-18T20:02:14.099Z,10.17
2022-10-18T20:07:16.904Z,10.10
2022-10-18T20:12:19.672Z,10.03
2022-10-18T20:17:22.443Z,9.93
2022-10-18T20:22:25.296Z,9.81
2022-10-18T20:27:30.617Z,9.73
2022-10-18T20:32:33.517Z,9.68
2022-10-18T20:37:36.898Z,9.61
2022-10-18T20:42:39.813Z,9.53
2022-10-18T20:47:43.034Z,9.50
2022-10-18T20:52:51.089Z,9.43
2022-10-18T20:57:53.847Z,9.38
2022-10-18T21:02:58.612Z,9.32
2022-10-18T21:08:01.482Z,9.28
2022-10-18T21:13:04.320Z,9.25
2022-10-18T21:18:07.139Z,9.24
2022-10-18T21:23:09.982Z,9.22
2022-10-18T21:28:13.536Z,9.21
2022-10-18T21:33:16.314Z,9.20
2022-10-18T21:38:19.136Z,9.15
2022-10-18T21:43:21.692Z,9.17
2022-10-18T21:48:24.504Z,9.20
2022-10-18T21:53:27.297Z,9.22
2022-10-18T21:58:30.015Z,9.26
2022-10-18T22:03:32.801Z,9.36
2022-10-18T22:08:36.079Z,9.43
2022-10-18T22:13:38.745Z,9.49
2022-10-18T22:18:42.643Z,9.57
2022-10-18T22:23:53.171Z,9.62
2022-10-18T22:28:57.153Z,9.72
2022-10-18T22:34:03.159Z,9.77
2022-10-18T22:39:06.631Z,9.79
2022-10-18T22:44:14.953Z,9.83
2022-10-18T22:49:18.292Z,9.86
2022-10-18T22:54:21.181Z,9.88
2022-10-18T22:59:23.887Z,9.91
2022-10-18T23:04:26.795Z,9.96
2022-10-18T23:09:29.719Z,9.97
2022-10-18T23:14:32.566Z,9.96
2022-10-18T23:19:35.505Z,9.93
2022-10-18T23:24:38.326Z,9.89
2022-10-18T23:29:41.142Z,9.81
2022-10-18T23:34:44.111Z,9.73
2022-10-18T23:39:46.874Z,9.64
2022-10-18T23:44:49.665Z,9.54
2022-10-18T23:49:53.258Z,9.47
2022-10-18T23:54:56.042Z,9.36
2022-10-18T23:59:58.774Z,9.32
